sensor_id;sensor_type;location;lat;lon;timestamp;temperature;humidity
32293;DHT22;43233;48.608;8.838;2022-08-21T00:01:28;15.70;83.20
32293;DHT22;43233;48.608;8.838;2022-08-21T00:03:55;15.60;84.50
32293;DHT22;43233;48.608;8.838;2022-08-21T00:06:21;15.50;86.70
32293;DHT22;43233;48.608;8.838;2022-08-21T00:08:49;15.40;87.60
32293;DHT22;43233;48.608;8.838;2022-08-21T00:11:15;15.40;88.50
32293;DHT22;43233;48.608;8.838;2022-08-21T00:13:42;15.30;89.70
32293;DHT22;43233;48.608;8.838;2022-08-21T00:16:08;15.20;89.40
32293;DHT22;43233;48.608;8.838;2022-08-21T00:18:33;15.20;89.50
32293;DHT22;43233;48.608;8.838;2022-08-21T00:20:59;15.10;90.00
32293;DHT22;43233;48.608;8.838;2022-08-21T00:23:25;15.00;89.90
32293;DHT22;43233;48.608;8.838;2022-08-21T00:25:51;15.00;89.70
32293;DHT22;43233;48.608;8.838;2022-08-21T00:28:18;15.00;89.10
32293;DHT22;43233;48.608;8.838;2022-08-21T00:30:44;15.00;88.50
32293;DHT22;43233;48.608;8.838;2022-08-21T00:33:11;14.80;90.80
32293;DHT22;43233;48.608;8.838;2022-08-21T00:35:39;14.80;92.10
32293;DHT22;43233;48.608;8.838;2022-08-21T00:38:07;14.90;91.40
32293;DHT22;43233;48.608;8.838;2022-08-21T00:40:41;14.90;90.60
32293;DHT22;43233;48.608;8.838;2022-08-21T00:43:10;14.90;89.80
32293;DHT22;43233;48.608;8.838;2022-08-21T00:45:37;14.90;89.80
32293;DHT22;43233;48.608;8.838;2022-08-21T00:48:03;14.80;89.60
32293;DHT22;43233;48.608;8.838;2022-08-21T00:50:32;14.70;89.50
32293;DHT22;43233;48.608;8.838;2022-08-21T00:53:00;14.70;90.50
32293;DHT22;43233;48.608;8.838;2022-08-21T00:55:27;14.60;90.40
32293;DHT22;43233;48.608;8.838;2022-08-21T00:57:55;14.60;90.80
32293;DHT22;43233;48.608;8.838;2022-08-21T01:00:30;14.50;91.70
32293;DHT22;43233;48.608;8.838;2022-08-21T01:02:58;14.50;91.70
32293;DHT22;43233;48.608;8.838;2022-08-21T01:05:25;14.50;91.80
32293;DHT22;43233;48.608;8.838;2022-08-21T01:07:52;14.60;90.80
32293;DHT22;43233;48.608;8.838;2022-08-21T01:10:18;14.60;91.00
32293;DHT22;43233;48.608;8.838;2022-08-21T01:12:47;14.60;91.40
32293;DHT22;43233;48.608;8.838;2022-08-21T01:15:16;14.50;92.10
32293;DHT22;43233;48.608;8.838;2022-08-21T01:17:42;14.40;96.00
32293;DHT22;43233;48.608;8.838;2022-08-21T01:20:10;14.40;95.50
32293;DHT22;43233;48.608;8.838;2022-08-21T01:22:36;14.40;94.70
32293;DHT22;43233;48.608;8.838;2022-08-21T01:25:05;14.40;95.10
32293;DHT22;43233;48.608;8.838;2022-08-21T01:27:31;14.30;95.20
32293;DHT22;43233;48.608;8.838;2022-08-21T01:30:03;14.30;96.00
32293;DHT22;43233;48.608;8.838;2022-08-21T01:32:33;14.20;97.00
32293;DHT22;43233;48.608;8.838;2022-08-21T01:34:59;14.20;98.30
32293;DHT22;43233;48.608;8.838;2022-08-21T01:37:25;14.10;99.50
32293;DHT22;43233;48.608;8.838;2022-08-21T01:39:51;14.10;99.90
32293;DHT22;43233;48.608;8.838;2022-08-21T01:42:17;14.10;99.90
32293;DHT22;43233;48.608;8.838;2022-08-21T01:44:43;14.10;99.90
32293;DHT22;43233;48.608;8.838;2022-08-21T01:47:10;14.10;99.90
32293;DHT22;43233;48.608;8.838;2022-08-21T01:49:37;14.10;99.90
32293;DHT22;43233;48.608;8.838;2022-08-21T01:52:04;14.10;99.90
32293;DHT22;43233;48.608;8.838;2022-08-21T01:54:30;14.00;99.90
32293;DHT22;43233;48.608;8.838;2022-08-21T01:56:56;14.00;99.70
32293;DHT22;43233;48.608;8.838;2022-08-21T01:59:23;14.00;99.90
32293;DHT22;43233;48.608;8.838;2022-08-21T02:01:49;13.90;99.90
32293;DHT22;43233;48.608;8.838;2022-08-21T02:04:15;13.80;99.90
32293;DHT22;43233;48.608;8.838;2022-08-21T02:06:42;13.70;99.90
32293;DHT22;43233;48.608;8.838;2022-08-21T02:09:10;13.50;99.90
32293;DHT22;43233;48.608;8.838;2022-08-21T02:11:36;13.50;99.90
32293;DHT22;43233;48.608;8.838;2022-08-21T02:14:09;13.50;99.90
32293;DHT22;43233;48.608;8.838;2022-08-21T02:16:37;13.40;99.90
32293;DHT22;43233;48.608;8.838;2022-08-21T02:19:03;13.40;99.90
32293;DHT22;43233;48.608;8.838;2022-08-21T02:21:29;13.40;99.90
32293;DHT22;43233;48.608;8.838;2022-08-21T02:23:55;13.50;99.90
32293;DHT22;43233;48.608;8.838;2022-08-21T02:26:21;13.40;99.90
32293;DHT22;43233;48.608;8.838;2022-08-21T02:28:47;13.40;99.90
32293;DHT22;43233;48.608;8.838;2022-08-21T02:31:13;13.30;99.90
32293;DHT22;43233;48.608;8.838;2022-08-21T02:33:40;13.40;99.90
32293;DHT22;43233;48.608;8.838;2022-08-21T02:36:06;13.30;99.90
32293;DHT22;43233;48.608;8.838;2022-08-21T02:38:34;13.20;99.90
32293;DHT22;43233;48.608;8.838;2022-08-21T02:41:07;13.20;99.90
32293;DHT22;43233;48.608;8.838;2022-08-21T02:43:33;13.20;99.90
32293;DHT22;43233;48.608;8.838;2022-08-21T02:45:59;13.30;99.90
32293;DHT22;43233;48.608;8.838;2022-08-21T02:48:30;13.40;99.90
32293;DHT22;43233;48.608;8.838;2022-08-21T02:51:02;13.40;99.90
32293;DHT22;43233;48.608;8.838;2022-08-21T02:53:29;13.40;99.90
32293;DHT22;43233;48.608;8.838;2022-08-21T02:55:57;13.40;99.90
32293;DHT22;43233;48.608;8.838;2022-08-21T02:58:27;13.50;99.90
32293;DHT22;43233;48.608;8.838;2022-08-21T03:00:54;13.60;99.90
32293;DHT22;43233;48.608;8.838;2022-08-21T03:03:20;13.60;99.90
32293;DHT22;43233;48.608;8.838;2022-08-21T03:05:47;13.50;99.90
32293;DHT22;43233;48.608;8.838;2022-08-21T03:08:14;13.50;99.90
32293;DHT22;43233;48.608;8.838;2022-08-21T03:10:44;13.50;99.90
32293;DHT22;43233;48.608;8.838;2022-08-21T03:13:11;13.40;99.90
32293;DHT22;43233;48.608;8.838;2022-08-21T03:15:37;13.20;99.90
32293;DHT22;43233;48.608;8.838;2022-08-21T03:18:04;13.10;99.90
32293;DHT22;43233;48.608;8.838;2022-08-21T03:20:30;13.10;99.90
32293;DHT22;43233;48.608;8.838;2022-08-21T03:22:58;13.10;99.90
32293;DHT22;43233;48.608;8.838;2022-08-21T03:25:25;13.20;99.90
32293;DHT22;43233;48.608;8.838;2022-08-21T03:27:52;13.20;99.90
32293;DHT22;43233;48.608;8.838;2022-08-21T03:30:19;13.10;99.90
32293;DHT22;43233;48.608;8.838;2022-08-21T03:32:46;13.10;99.90
32293;DHT22;43233;48.608;8.838;2022-08-21T03:35:13;13.00;99.90
32293;DHT22;43233;48.608;8.838;2022-08-21T03:37:39;13.00;99.90
32293;DHT22;43233;48.608;8.838;2022-08-21T03:40:07;13.00;99.90
32293;DHT22;43233;48.608;8.838;2022-08-21T03:42:34;13.10;99.90
32293;DHT22;43233;48.608;8.838;2022-08-21T03:45:00;13.10;99.90
32293;DHT22;43233;48.608;8.838;2022-08-21T03:47:26;13.00;99.90
32293;DHT22;43233;48.608;8.838;2022-08-21T03:49:52;13.10;99.90
32293;DHT22;43233;48.608;8.838;2022-08-21T03:52:18;13.00;99.90
32293;DHT22;43233;48.608;8.838;2022-08-21T03:54:44;13.10;99.90
32293;DHT22;43233;48.608;8.838;2022-08-21T03:57:10;13.10;99.90
32293;DHT22;43233;48.608;8.838;2022-08-21T03:59:37;13.00;99.90
32293;DHT22;43233;48.608;8.838;2022-08-21T04:02:05;13.00;99.90
32293;DHT22;43233;48.608;8.838;2022-08-21T04:04:32;13.00;99.90
32293;DHT22;43233;48.608;8.838;2022-08-21T04:06:58;12.90;99.90
32293;DHT22;43233;48.608;8.838;2022-08-21T04:09:25;12.70;99.90
32293;DHT22;43233;48.608;8.838;2022-08-21T04:11:51;12.70;99.90
32293;DHT22;43233;48.608;8.838;2022-08-21T04:14:18;12.70;99.90
32293;DHT22;43233;48.608;8.838;2022-08-21T04:16:44;12.60;99.90
32293;DHT22;43233;48.608;8.838;2022-08-21T04:19:10;12.60;99.90
32293;DHT22;43233;48.608;8.838;2022-08-21T04:21:39;12.50;99.90
32293;DHT22;43233;48.608;8.838;2022-08-21T04:24:06;12.50;99.90
32293;DHT22;43233;48.608;8.838;2022-08-21T04:26:33;12.50;99.90
32293;DHT22;43233;48.608;8.838;2022-08-21T04:29:00;12.50;99.90
32293;DHT22;43233;48.608;8.838;2022-08-21T04:31:26;12.50;99.90
32293;DHT22;43233;48.608;8.838;2022-08-21T04:33:55;12.60;99.90
32293;DHT22;43233;48.608;8.838;2022-08-21T04:36:22;12.60;99.90
32293;DHT22;43233;48.608;8.838;2022-08-21T04:38:48;12.60;99.90
32293;DHT22;43233;48.608;8.838;2022-08-21T04:41:14;12.70;99.90
32293;DHT22;43233;48.608;8.838;2022-08-21T04:43:40;12.70;99.90
32293;DHT22;43233;48.608;8.838;2022-08-21T04:46:06;12.70;99.90
32293;DHT22;43233;48.608;8.838;2022-08-21T04:48:32;12.60;99.90
32293;DHT22;43233;48.608;8.838;2022-08-21T04:51:22;12.60;99.90
32293;DHT22;43233;48.608;8.838;2022-08-21T04:53:53;12.60;99.90
32293;DHT22;43233;48.608;8.838;2022-08-21T04:56:28;12.70;99.90
32293;DHT22;43233;48.608;8.838;2022-08-21T04:58:59;12.60;99.90
32293;DHT22;43233;48.608;8.838;2022-08-21T05:01:30;12.60;99.90
32293;DHT22;43233;48.608;8.838;2022-08-21T05:03:59;12.60;99.90
32293;DHT22;43233;48.608;8.838;2022-08-21T05:06:26;12.70;99.90
32293;DHT22;43233;48.608;8.838;2022-08-21T05:08:55;12.70;99.90
32293;DHT22;43233;48.608;8.838;2022-08-21T05:11:21;12.70;99.90
32293;DHT22;43233;48.608;8.838;2022-08-21T05:13:48;12.70;99.90
32293;DHT22;43233;48.608;8.838;2022-08-21T05:16:14;12.80;99.90
32293;DHT22;43233;48.608;8.838;2022-08-21T05:18:41;12.80;99.90
32293;DHT22;43233;48.608;8.838;2022-08-21T05:21:07;12.90;99.90
32293;DHT22;43233;48.608;8.838;2022-08-21T05:23:33;12.90;99.90
32293;DHT22;43233;48.608;8.838;2022-08-21T05:25:58;12.90;99.90
32293;DHT22;43233;48.608;8.838;2022-08-21T05:28:24;13.00;99.90
32293;DHT22;43233;48.608;8.838;2022-08-21T05:30:51;13.00;99.90
32293;DHT22;43233;48.608;8.838;2022-08-21T05:33:17;13.10;99.90
32293;DHT22;43233;48.608;8.838;2022-08-21T05:35:43;13.10;99.90
32293;DHT22;43233;48.608;8.838;2022-08-21T05:38:08;13.20;99.90
32293;DHT22;43233;48.608;8.838;2022-08-21T05:40:34;13.30;99.90
32293;DHT22;43233;48.608;8.838;2022-08-21T05:43:00;13.30;99.90
32293;DHT22;43233;48.608;8.838;2022-08-21T05:45:29;13.40;99.90
32293;DHT22;43233;48.608;8.838;2022-08-21T05:47:55;13.50;99.90
32293;DHT22;43233;48.608;8.838;2022-08-21T05:50:21;13.60;99.90
32293;DHT22;43233;48.608;8.838;2022-08-21T05:52:47;13.70;99.90
32293;DHT22;43233;48.608;8.838;2022-08-21T05:55:12;13.80;99.90
32293;DHT22;43233;48.608;8.838;2022-08-21T05:57:38;13.90;99.90
32293;DHT22;43233;48.608;8.838;2022-08-21T06:00:09;13.90;99.90
32293;DHT22;43233;48.608;8.838;2022-08-21T06:02:38;14.00;99.90
32293;DHT22;43233;48.608;8.838;2022-08-21T06:05:04;14.10;99.90
32293;DHT22;43233;48.608;8.838;2022-08-21T06:07:30;14.20;99.90
32293;DHT22;43233;48.608;8.838;2022-08-21T06:09:56;14.40;99.90
32293;DHT22;43233;48.608;8.838;2022-08-21T06:12:21;14.40;99.90
32293;DHT22;43233;48.608;8.838;2022-08-21T06:14:47;14.50;99.90
32293;DHT22;43233;48.608;8.838;2022-08-21T06:17:13;14.60;99.90
32293;DHT22;43233;48.608;8.838;2022-08-21T06:19:40;14.70;99.90
32293;DHT22;43233;48.608;8.838;2022-08-21T06:22:05;14.70;99.90
32293;DHT22;43233;48.608;8.838;2022-08-21T06:24:31;14.90;99.90
32293;DHT22;43233;48.608;8.838;2022-08-21T06:26:57;14.90;99.90
32293;DHT22;43233;48.608;8.838;2022-08-21T06:29:25;15.00;99.90
32293;DHT22;43233;48.608;8.838;2022-08-21T06:31:51;15.10;99.90
32293;DHT22;43233;48.608;8.838;2022-08-21T06:34:17;15.10;99.90
32293;DHT22;43233;48.608;8.838;2022-08-21T06:36:43;15.20;99.90
32293;DHT22;43233;48.608;8.838;2022-08-21T06:39:09;15.30;99.90
32293;DHT22;43233;48.608;8.838;2022-08-21T06:41:35;15.30;99.90
32293;DHT22;43233;48.608;8.838;2022-08-21T06:44:01;15.40;99.90
32293;DHT22;43233;48.608;8.838;2022-08-21T06:46:29;15.50;99.90
32293;DHT22;43233;48.608;8.838;2022-08-21T06:48:55;15.60;99.90
32293;DHT22;43233;48.608;8.838;2022-08-21T06:51:22;15.70;99.90
32293;DHT22;43233;48.608;8.838;2022-08-21T06:53:49;15.80;99.90
32293;DHT22;43233;48.608;8.838;2022-08-21T06:56:15;15.80;99.90
32293;DHT22;43233;48.608;8.838;2022-08-21T06:58:40;15.90;99.90
32293;DHT22;43233;48.608;8.838;2022-08-21T07:01:06;16.00;99.90
32293;DHT22;43233;48.608;8.838;2022-08-21T07:03:37;16.00;99.90
32293;DHT22;43233;48.608;8.838;2022-08-21T07:06:04;16.10;99.90
32293;DHT22;43233;48.608;8.838;2022-08-21T07:08:30;16.10;99.90
32293;DHT22;43233;48.608;8.838;2022-08-21T07:10:58;16.20;99.90
32293;DHT22;43233;48.608;8.838;2022-08-21T07:13:24;16.30;99.90
32293;DHT22;43233;48.608;8.838;2022-08-21T07:15:50;16.40;99.90
32293;DHT22;43233;48.608;8.838;2022-08-21T07:18:16;16.50;99.90
32293;DHT22;43233;48.608;8.838;2022-08-21T07:20:41;16.60;99.60
32293;DHT22;43233;48.608;8.838;2022-08-21T07:23:30;16.70;99.30
32293;DHT22;43233;48.608;8.838;2022-08-21T07:25:57;16.80;98.20
32293;DHT22;43233;48.608;8.838;2022-08-21T07:28:25;16.90;95.60
32293;DHT22;43233;48.608;8.838;2022-08-21T07:30:52;17.10;95.60
32293;DHT22;43233;48.608;8.838;2022-08-21T07:33:18;17.20;93.20
32293;DHT22;43233;48.608;8.838;2022-08-21T07:35:44;17.30;91.40
32293;DHT22;43233;48.608;8.838;2022-08-21T07:38:10;17.50;90.60
32293;DHT22;43233;48.608;8.838;2022-08-21T07:40:35;17.60;87.50
32293;DHT22;43233;48.608;8.838;2022-08-21T07:43:01;17.60;87.10
32293;DHT22;43233;48.608;8.838;2022-08-21T07:45:27;17.70;86.30
32293;DHT22;43233;48.608;8.838;2022-08-21T07:47:53;17.80;85.70
32293;DHT22;43233;48.608;8.838;2022-08-21T07:50:19;17.90;84.80
32293;DHT22;43233;48.608;8.838;2022-08-21T07:52:45;18.00;83.80
32293;DHT22;43233;48.608;8.838;2022-08-21T07:55:15;18.10;82.30
32293;DHT22;43233;48.608;8.838;2022-08-21T07:57:41;18.10;82.60
32293;DHT22;43233;48.608;8.838;2022-08-21T08:00:10;18.20;81.10
32293;DHT22;43233;48.608;8.838;2022-08-21T08:02:36;18.30;79.10
32293;DHT22;43233;48.608;8.838;2022-08-21T08:05:04;18.50;76.60
32293;DHT22;43233;48.608;8.838;2022-08-21T08:07:31;18.60;75.00
32293;DHT22;43233;48.608;8.838;2022-08-21T08:09:57;18.70;73.40
32293;DHT22;43233;48.608;8.838;2022-08-21T08:12:24;18.80;74.90
32293;DHT22;43233;48.608;8.838;2022-08-21T08:14:56;18.90;72.60
32293;DHT22;43233;48.608;8.838;2022-08-21T08:17:22;19.00;72.20
32293;DHT22;43233;48.608;8.838;2022-08-21T08:19:49;19.20;66.60
32293;DHT22;43233;48.608;8.838;2022-08-21T08:22:19;19.30;67.00
32293;DHT22;43233;48.608;8.838;2022-08-21T08:24:46;19.50;66.50
32293;DHT22;43233;48.608;8.838;2022-08-21T08:27:11;19.50;65.40
32293;DHT22;43233;48.608;8.838;2022-08-21T08:29:37;19.60;65.90
32293;DHT22;43233;48.608;8.838;2022-08-21T08:32:04;19.70;65.30
32293;DHT22;43233;48.608;8.838;2022-08-21T08:34:33;19.80;63.90
32293;DHT22;43233;48.608;8.838;2022-08-21T08:36:58;19.90;64.50
32293;DHT22;43233;48.608;8.838;2022-08-21T08:39:25;20.00;63.00
32293;DHT22;43233;48.608;8.838;2022-08-21T08:42:08;20.10;61.80
32293;DHT22;43233;48.608;8.838;2022-08-21T08:44:36;20.30;60.00
32293;DHT22;43233;48.608;8.838;2022-08-21T08:47:03;20.40;59.10
32293;DHT22;43233;48.608;8.838;2022-08-21T08:52:22;20.60;56.00
32293;DHT22;43233;48.608;8.838;2022-08-21T08:55:14;20.80;56.30
32293;DHT22;43233;48.608;8.838;2022-08-21T08:57:45;20.80;56.10
32293;DHT22;43233;48.608;8.838;2022-08-21T09:00:14;20.90;53.60
32293;DHT22;43233;48.608;8.838;2022-08-21T09:02:43;21.00;52.10
32293;DHT22;43233;48.608;8.838;2022-08-21T09:05:48;21.10;53.00
32293;DHT22;43233;48.608;8.838;2022-08-21T09:19:39;21.70;48.20
32293;DHT22;43233;48.608;8.838;2022-08-21T09:25:28;21.90;48.30
32293;DHT22;43233;48.608;8.838;2022-08-21T09:27:56;22.00;48.40
32293;DHT22;43233;48.608;8.838;2022-08-21T09:30:31;22.20;47.80
32293;DHT22;43233;48.608;8.838;2022-08-21T09:32:57;22.30;47.40
32293;DHT22;43233;48.608;8.838;2022-08-21T09:35:24;22.50;48.50
32293;DHT22;43233;48.608;8.838;2022-08-21T09:38:00;22.60;45.40
32293;DHT22;43233;48.608;8.838;2022-08-21T09:40:39;22.70;44.20
32293;DHT22;43233;48.608;8.838;2022-08-21T09:45:37;22.70;43.10
32293;DHT22;43233;48.608;8.838;2022-08-21T09:48:14;22.80;43.90
32293;DHT22;43233;48.608;8.838;2022-08-21T09:50:41;22.90;44.50
32293;DHT22;43233;48.608;8.838;2022-08-21T09:53:25;23.00;42.30
32293;DHT22;43233;48.608;8.838;2022-08-21T09:55:57;23.10;42.10
32293;DHT22;43233;48.608;8.838;2022-08-21T09:58:44;23.20;42.90
32293;DHT22;43233;48.608;8.838;2022-08-21T10:01:29;23.40;39.80
32293;DHT22;43233;48.608;8.838;2022-08-21T10:04:08;23.40;38.70
32293;DHT22;43233;48.608;8.838;2022-08-21T10:06:34;23.50;40.70
32293;DHT22;43233;48.608;8.838;2022-08-21T10:11:30;23.80;38.30
32293;DHT22;43233;48.608;8.838;2022-08-21T10:22:09;24.50;38.50
32293;DHT22;43233;48.608;8.838;2022-08-21T10:24:55;24.60;38.00
32293;DHT22;43233;48.608;8.838;2022-08-21T10:27:37;24.80;36.50
32293;DHT22;43233;48.608;8.838;2022-08-21T10:30:12;24.90;37.00
32293;DHT22;43233;48.608;8.838;2022-08-21T10:35:32;25.00;35.90
32293;DHT22;43233;48.608;8.838;2022-08-21T10:41:13;25.10;37.00
32293;DHT22;43233;48.608;8.838;2022-08-21T10:51:55;25.70;36.70
32293;DHT22;43233;48.608;8.838;2022-08-21T10:57:27;26.10;33.40
32293;DHT22;43233;48.608;8.838;2022-08-21T11:00:04;26.20;33.70
32293;DHT22;43233;48.608;8.838;2022-08-21T11:05:11;26.30;32.60
32293;DHT22;43233;48.608;8.838;2022-08-21T11:07:49;26.30;32.60
32293;DHT22;43233;48.608;8.838;2022-08-21T11:10:27;26.30;31.30
32293;DHT22;43233;48.608;8.838;2022-08-21T11:13:04;26.20;32.80
32293;DHT22;43233;48.608;8.838;2022-08-21T11:21:01;26.40;33.50
32293;DHT22;43233;48.608;8.838;2022-08-21T11:23:38;26.50;33.80
32293;DHT22;43233;48.608;8.838;2022-08-21T11:26:11;26.60;33.00
32293;DHT22;43233;48.608;8.838;2022-08-21T11:28:53;26.80;31.40
32293;DHT22;43233;48.608;8.838;2022-08-21T11:31:48;26.80;30.80
32293;DHT22;43233;48.608;8.838;2022-08-21T11:42:48;26.70;29.00
32293;DHT22;43233;48.608;8.838;2022-08-21T11:45:32;26.90;29.10
32293;DHT22;43233;48.608;8.838;2022-08-21T11:50:45;27.00;30.00
32293;DHT22;43233;48.608;8.838;2022-08-21T11:53:26;27.10;30.20
32293;DHT22;43233;48.608;8.838;2022-08-21T11:56:16;27.30;29.50
32293;DHT22;43233;48.608;8.838;2022-08-21T11:59:04;27.50;28.60
32293;DHT22;43233;48.608;8.838;2022-08-21T12:01:36;27.70;28.20
32293;DHT22;43233;48.608;8.838;2022-08-21T12:04:09;27.90;27.80
32293;DHT22;43233;48.608;8.838;2022-08-21T12:06:36;28.20;26.90
32293;DHT22;43233;48.608;8.838;2022-08-21T12:09:51;28.10;26.90
32293;DHT22;43233;48.608;8.838;2022-08-21T12:12:12;28.20;28.40
32293;DHT22;43233;48.608;8.838;2022-08-21T12:14:46;28.50;27.10
32293;DHT22;43233;48.608;8.838;2022-08-21T12:17:22;28.80;27.30
32293;DHT22;43233;48.608;8.838;2022-08-21T12:20:14;29.10;26.40
32293;DHT22;43233;48.608;8.838;2022-08-21T12:22:47;29.10;26.30
32293;DHT22;43233;48.608;8.838;2022-08-21T12:25:18;29.40;24.90
32293;DHT22;43233;48.608;8.838;2022-08-21T12:27:51;29.50;24.80
32293;DHT22;43233;48.608;8.838;2022-08-21T12:30:34;28.80;25.30
32293;DHT22;43233;48.608;8.838;2022-08-21T12:35:47;29.00;27.20
32293;DHT22;43233;48.608;8.838;2022-08-21T12:38:28;29.30;27.80
32293;DHT22;43233;48.608;8.838;2022-08-21T12:41:01;29.50;27.40
32293;DHT22;43233;48.608;8.838;2022-08-21T12:43:41;29.80;26.00
32293;DHT22;43233;48.608;8.838;2022-08-21T12:46:16;30.00;26.90
32293;DHT22;43233;48.608;8.838;2022-08-21T12:48:51;29.90;26.30
32293;DHT22;43233;48.608;8.838;2022-08-21T12:51:29;29.90;25.50
32293;DHT22;43233;48.608;8.838;2022-08-21T12:53:58;29.70;25.90
32293;DHT22;43233;48.608;8.838;2022-08-21T12:56:27;29.50;25.00
32293;DHT22;43233;48.608;8.838;2022-08-21T12:59:05;29.30;25.50
32293;DHT22;43233;48.608;8.838;2022-08-21T13:01:45;29.30;26.20
32293;DHT22;43233;48.608;8.838;2022-08-21T13:04:15;29.40;24.40
32293;DHT22;43233;48.608;8.838;2022-08-21T13:06:47;28.80;26.30
32293;DHT22;43233;48.608;8.838;2022-08-21T13:09:18;28.50;25.90
32293;DHT22;43233;48.608;8.838;2022-08-21T13:11:46;28.50;27.20
32293;DHT22;43233;48.608;8.838;2022-08-21T13:16:55;28.70;26.50
32293;DHT22;43233;48.608;8.838;2022-08-21T13:19:21;28.90;25.20
32293;DHT22;43233;48.608;8.838;2022-08-21T13:21:48;28.90;26.10
32293;DHT22;43233;48.608;8.838;2022-08-21T13:26:50;28.50;25.80
32293;DHT22;43233;48.608;8.838;2022-08-21T13:29:18;28.40;27.10
32293;DHT22;43233;48.608;8.838;2022-08-21T13:31:57;28.40;27.50
32293;DHT22;43233;48.608;8.838;2022-08-21T13:34:26;28.30;27.50
32293;DHT22;43233;48.608;8.838;2022-08-21T13:36:57;28.20;27.00
32293;DHT22;43233;48.608;8.838;2022-08-21T13:39:24;28.20;27.70
32293;DHT22;43233;48.608;8.838;2022-08-21T13:41:55;28.10;28.10
32293;DHT22;43233;48.608;8.838;2022-08-21T13:44:44;28.30;28.30
32293;DHT22;43233;48.608;8.838;2022-08-21T13:47:12;28.60;25.10
32293;DHT22;43233;48.608;8.838;2022-08-21T13:49:49;28.90;25.30
32293;DHT22;43233;48.608;8.838;2022-08-21T13:52:24;29.00;25.70
32293;DHT22;43233;48.608;8.838;2022-08-21T13:55:08;29.40;24.40
32293;DHT22;43233;48.608;8.838;2022-08-21T13:57:35;30.00;23.40
32293;DHT22;43233;48.608;8.838;2022-08-21T14:00:25;30.20;23.70
32293;DHT22;43233;48.608;8.838;2022-08-21T14:02:52;30.50;24.10
32293;DHT22;43233;48.608;8.838;2022-08-21T14:07:47;30.50;24.80
32293;DHT22;43233;48.608;8.838;2022-08-21T14:10:21;30.30;23.70
32293;DHT22;43233;48.608;8.838;2022-08-21T14:12:56;30.40;25.00
32293;DHT22;43233;48.608;8.838;2022-08-21T14:15:26;30.80;22.70
32293;DHT22;43233;48.608;8.838;2022-08-21T14:17:54;31.10;22.80
32293;DHT22;43233;48.608;8.838;2022-08-21T14:20:46;31.40;22.70
32293;DHT22;43233;48.608;8.838;2022-08-21T14:23:23;31.40;20.10
32293;DHT22;43233;48.608;8.838;2022-08-21T14:25:48;31.40;20.90
32293;DHT22;43233;48.608;8.838;2022-08-21T14:28:37;31.60;21.40
32293;DHT22;43233;48.608;8.838;2022-08-21T14:31:14;32.10;22.00
32293;DHT22;43233;48.608;8.838;2022-08-21T14:33:41;32.70;20.10
32293;DHT22;43233;48.608;8.838;2022-08-21T14:36:07;32.00;19.30
32293;DHT22;43233;48.608;8.838;2022-08-21T14:38:35;32.10;18.80
32293;DHT22;43233;48.608;8.838;2022-08-21T14:41:14;32.50;18.40
32293;DHT22;43233;48.608;8.838;2022-08-21T14:43:41;32.40;17.80
32293;DHT22;43233;48.608;8.838;2022-08-21T14:46:07;32.20;19.40
32293;DHT22;43233;48.608;8.838;2022-08-21T14:48:33;32.80;18.30
32293;DHT22;43233;48.608;8.838;2022-08-21T14:50:59;33.40;17.50
32293;DHT22;43233;48.608;8.838;2022-08-21T14:53:24;33.90;17.70
32293;DHT22;43233;48.608;8.838;2022-08-21T14:55:50;34.10;18.10
32293;DHT22;43233;48.608;8.838;2022-08-21T14:58:39;34.00;18.20
32293;DHT22;43233;48.608;8.838;2022-08-21T15:01:11;33.90;18.60
32293;DHT22;43233;48.608;8.838;2022-08-21T15:03:37;33.70;19.60
32293;DHT22;43233;48.608;8.838;2022-08-21T15:06:04;33.40;20.00
32293;DHT22;43233;48.608;8.838;2022-08-21T15:08:31;32.90;20.50
32293;DHT22;43233;48.608;8.838;2022-08-21T15:10:58;32.50;20.40
32293;DHT22;43233;48.608;8.838;2022-08-21T15:13:24;32.20;20.80
32293;DHT22;43233;48.608;8.838;2022-08-21T15:15:51;31.80;20.90
32293;DHT22;43233;48.608;8.838;2022-08-21T15:18:22;31.80;21.60
32293;DHT22;43233;48.608;8.838;2022-08-21T15:20:49;31.90;21.00
32293;DHT22;43233;48.608;8.838;2022-08-21T15:23:15;32.10;21.00
32293;DHT22;43233;48.608;8.838;2022-08-21T15:25:43;32.50;20.10
32293;DHT22;43233;48.608;8.838;2022-08-21T15:28:10;32.60;20.00
32293;DHT22;43233;48.608;8.838;2022-08-21T15:30:37;32.80;20.10
32293;DHT22;43233;48.608;8.838;2022-08-21T15:33:04;32.60;20.10
32293;DHT22;43233;48.608;8.838;2022-08-21T15:35:29;32.40;20.00
32293;DHT22;43233;48.608;8.838;2022-08-21T15:37:55;32.10;20.00
32293;DHT22;43233;48.608;8.838;2022-08-21T15:40:21;31.70;20.20
32293;DHT22;43233;48.608;8.838;2022-08-21T15:42:47;31.40;20.60
32293;DHT22;43233;48.608;8.838;2022-08-21T15:45:14;31.20;21.40
32293;DHT22;43233;48.608;8.838;2022-08-21T15:47:44;31.00;21.80
32293;DHT22;43233;48.608;8.838;2022-08-21T15:50:12;30.90;21.70
32293;DHT22;43233;48.608;8.838;2022-08-21T15:52:37;30.60;22.00
32293;DHT22;43233;48.608;8.838;2022-08-21T15:55:05;30.50;22.50
32293;DHT22;43233;48.608;8.838;2022-08-21T15:57:31;30.30;22.90
32293;DHT22;43233;48.608;8.838;2022-08-21T16:00:03;30.10;23.30
32293;DHT22;43233;48.608;8.838;2022-08-21T16:02:36;29.90;23.30
32293;DHT22;43233;48.608;8.838;2022-08-21T16:05:02;29.90;23.90
32293;DHT22;43233;48.608;8.838;2022-08-21T16:07:27;29.80;24.30
32293;DHT22;43233;48.608;8.838;2022-08-21T16:09:53;29.80;24.20
32293;DHT22;43233;48.608;8.838;2022-08-21T16:12:32;29.80;24.10
32293;DHT22;43233;48.608;8.838;2022-08-21T16:15:00;29.60;24.40
32293;DHT22;43233;48.608;8.838;2022-08-21T16:17:32;29.50;24.60
32293;DHT22;43233;48.608;8.838;2022-08-21T16:20:00;29.20;25.20
32293;DHT22;43233;48.608;8.838;2022-08-21T16:22:26;29.00;25.60
32293;DHT22;43233;48.608;8.838;2022-08-21T16:24:52;28.90;25.40
32293;DHT22;43233;48.608;8.838;2022-08-21T16:27:18;28.80;25.80
32293;DHT22;43233;48.608;8.838;2022-08-21T16:29:44;28.70;26.30
32293;DHT22;43233;48.608;8.838;2022-08-21T16:32:10;28.60;26.40
32293;DHT22;43233;48.608;8.838;2022-08-21T16:34:40;28.50;26.40
32293;DHT22;43233;48.608;8.838;2022-08-21T16:37:07;28.40;26.70
32293;DHT22;43233;48.608;8.838;2022-08-21T16:39:33;28.40;26.00
32293;DHT22;43233;48.608;8.838;2022-08-21T16:41:59;28.40;26.10
32293;DHT22;43233;48.608;8.838;2022-08-21T16:44:25;28.40;26.20
32293;DHT22;43233;48.608;8.838;2022-08-21T16:46:51;28.50;26.40
32293;DHT22;43233;48.608;8.838;2022-08-21T16:49:17;28.40;26.50
32293;DHT22;43233;48.608;8.838;2022-08-21T16:51:42;28.40;26.20
32293;DHT22;43233;48.608;8.838;2022-08-21T16:54:09;28.40;26.70
32293;DHT22;43233;48.608;8.838;2022-08-21T16:56:34;28.30;26.70
32293;DHT22;43233;48.608;8.838;2022-08-21T16:59:03;28.30;27.00
32293;DHT22;43233;48.608;8.838;2022-08-21T17:01:31;28.30;27.10